Time;durP1;ratioP1;P1;durP2;ratioP2;P2;SDS_P1;SDS_P2;PMS_P1;PMS_P2;Temp;Humidity;BMP_temperature;BMP_pressure;BME280_temperature;BME280_humidity;BME280_pressure;Samples;Min_cycle;Max_cycle;Signal;HPM_P1;HPM_P2
2023/12/23 00:01:43;;;;;;;9.77;2.30;;;;;9.90;100727.00;;;;10379067;28;20246;-82
2023/12/23 00:06:44;;;;;;;7.73;2.20;;;;;9.80;100723.00;;;;10381290;28;20234;-82
2023/12/23 00:11:46;;;;;;;13.43;2.30;;;;;9.80;100709.00;;;;10394241;28;20663;-82
2023/12/23 00:16:47;;;;;;;7.83;2.20;;;;;9.80;100718.00;;;;10402019;28;20210;-82
2023/12/23 00:21:48;;;;;;;6.50;2.07;;;;;9.80;100729.00;;;;10395193;28;20232;-81
2023/12/23 00:26:50;;;;;;;6.47;1.90;;;;;9.70;100726.00;;;;10406110;28;20660;-81
2023/12/23 00:31:51;;;;;;;9.33;2.10;;;;;9.70;100736.00;;;;10395499;28;20222;-81
2023/12/23 00:36:52;;;;;;;9.37;2.70;;;;;9.60;100722.00;;;;10382168;28;20576;-82
2023/12/23 00:41:54;;;;;;;3.90;1.47;;;;;9.60;100725.00;;;;10394244;28;20228;-81
2023/12/23 00:46:57;;;;;;;10.97;2.07;;;;;9.70;100732.00;;;;10375003;28;20229;-81
2023/12/23 00:52:00;;;;;;;8.37;1.83;;;;;9.70;100717.00;;;;10381837;28;20317;-81
2023/12/23 00:57:02;;;;;;;12.30;2.27;;;;;9.70;100707.00;;;;10379713;28;20219;-81
2023/12/23 01:02:03;;;;;;;13.67;2.37;;;;;9.80;100690.00;;;;10395498;28;20685;-79
2023/12/23 01:07:04;;;;;;;8.30;1.90;;;;;9.80;100708.00;;;;10390089;28;20209;-81
2023/12/23 01:12:06;;;;;;;3.43;1.47;;;;;9.80;100701.00;;;;10397726;28;20236;-81
2023/12/23 01:17:08;;;;;;;5.13;1.77;;;;;9.80;100696.00;;;;10385247;28;20233;-81
2023/12/23 01:22:09;;;;;;;12.33;2.03;;;;;9.80;100701.00;;;;10379428;28;20683;-80
2023/12/23 01:27:10;;;;;;;4.77;1.60;;;;;9.80;100699.00;;;;10378865;28;20963;-81
2023/12/23 01:32:11;;;;;;;7.50;1.60;;;;;9.80;100700.00;;;;10388935;28;20289;-81
2023/12/23 01:37:13;;;;;;;8.40;1.60;;;;;9.70;100698.00;;;;10401926;28;20803;-82
2023/12/23 01:42:14;;;;;;;6.27;2.33;;;;;9.70;100712.00;;;;10390261;28;20221;-79
2023/12/23 01:47:16;;;;;;;5.83;1.70;;;;;9.70;100687.00;;;;10371978;28;20311;-81
2023/12/23 01:52:17;;;;;;;7.33;1.97;;;;;9.70;100686.00;;;;10392467;28;20806;-82
2023/12/23 01:57:20;;;;;;;3.10;1.20;;;;;9.70;100678.00;;;;10366261;28;20875;-83
2023/12/23 02:02:21;;;;;;;11.40;2.40;;;;;9.70;100688.00;;;;10364747;28;20253;-81
2023/12/23 02:07:22;;;;;;;5.73;2.00;;;;;9.70;100661.00;;;;10376138;28;20336;-82
2023/12/23 02:12:34;;;;;;;5.20;1.23;;;;;9.70;100654.00;;;;10373201;28;20231;-81
2023/12/23 02:17:38;;;;;;;6.23;1.60;;;;;9.70;100658.00;;;;10388666;28;20306;-82
2023/12/23 02:22:40;;;;;;;6.70;1.40;;;;;9.60;100678.00;;;;10407209;28;20907;-82
2023/12/23 02:27:46;;;;;;;5.53;1.50;;;;;9.60;100678.00;;;;10379414;28;20246;-81
2023/12/23 02:32:49;;;;;;;6.20;1.57;;;;;9.60;100677.00;;;;10387359;28;20280;-81
2023/12/23 02:37:51;;;;;;;7.53;1.50;;;;;9.60;100692.00;;;;10384182;28;20304;-81
2023/12/23 02:42:52;;;;;;;5.30;1.67;;;;;9.60;100681.00;;;;10383596;28;20226;-81
2023/12/23 02:47:54;;;;;;;4.17;1.07;;;;;9.60;100655.00;;;;10378604;28;20217;-83
2023/12/23 02:52:56;;;;;;;6.43;1.90;;;;;9.60;100665.00;;;;10382726;28;20232;-82
2023/12/23 02:57:57;;;;;;;9.93;1.60;;;;;9.60;100653.00;;;;10375576;28;20253;-82
2023/12/23 03:02:58;;;;;;;7.63;1.70;;;;;9.60;100651.00;;;;10386492;28;20348;-82
2023/12/23 03:08:00;;;;;;;10.43;1.73;;;;;9.60;100643.00;;;;10377070;28;20829;-82
2023/12/23 03:13:02;;;;;;;7.63;1.70;;;;;9.60;100653.00;;;;10390414;28;20233;-82
2023/12/23 03:18:04;;;;;;;7.60;1.70;;;;;9.60;100659.00;;;;10381023;28;20560;-82
2023/12/23 03:23:05;;;;;;;6.43;1.50;;;;;9.60;100646.00;;;;10385981;28;20234;-82
2023/12/23 03:28:07;;;;;;;5.17;1.47;;;;;9.60;100655.00;;;;10383405;28;20221;-81
2023/12/23 03:33:09;;;;;;;10.07;1.67;;;;;9.60;100652.00;;;;10398396;28;20896;-82
2023/12/23 03:38:10;;;;;;;7.23;1.50;;;;;9.60;100637.00;;;;10376380;28;20223;-83
2023/12/23 03:43:11;;;;;;;8.23;1.83;;;;;9.70;100637.00;;;;10391692;28;20864;-82
2023/12/23 03:48:12;;;;;;;7.47;1.17;;;;;9.70;100630.00;;;;10389320;28;20244;-79
2023/12/23 03:53:14;;;;;;;4.27;1.40;;;;;9.70;100625.00;;;;10387539;28;20906;-80
2023/12/23 03:58:15;;;;;;;9.40;1.87;;;;;9.70;100620.00;;;;10377745;28;20795;-80
2023/12/23 04:03:17;;;;;;;7.13;1.80;;;;;9.70;100624.00;;;;10374914;28;20229;-81
2023/12/23 04:08:18;;;;;;;6.53;1.63;;;;;9.70;100609.00;;;;10377738;28;20226;-80
2023/12/23 04:13:20;;;;;;;6.87;2.30;;;;;9.70;100618.00;;;;10389536;28;20573;-81
2023/12/23 04:18:21;;;;;;;8.17;1.70;;;;;9.70;100598.00;;;;10377004;28;20263;-81
2023/12/23 04:23:23;;;;;;;8.30;1.87;;;;;9.70;100593.00;;;;10398025;28;20230;-81
2023/12/23 04:28:24;;;;;;;4.07;1.40;;;;;9.70;100599.00;;;;10380279;28;20222;-81
2023/12/23 04:33:25;;;;;;;7.07;1.90;;;;;9.70;100600.00;;;;10381325;28;20226;-81
2023/12/23 04:38:28;;;;;;;5.87;1.77;;;;;9.70;100607.00;;;;10379935;28;20222;-81
2023/12/23 04:43:30;;;;;;;12.40;2.10;;;;;9.70;100611.00;;;;10395881;28;20300;-82
2023/12/23 04:48:32;;;;;;;10.60;2.07;;;;;9.70;100604.00;;;;10376011;28;20748;-82
2023/12/23 04:53:33;;;;;;;6.67;1.70;;;;;9.60;100589.00;;;;10384797;28;20272;-80
2023/12/23 04:58:35;;;;;;;7.97;2.00;;;;;9.50;100597.00;;;;10378007;28;20246;-81
2023/12/23 05:03:36;;;;;;;9.43;2.13;;;;;9.30;100591.00;;;;10373180;28;20371;-82
2023/12/23 05:08:37;;;;;;;8.40;2.33;;;;;9.20;100599.00;;;;10380376;28;20237;-81
2023/12/23 05:13:39;;;;;;;4.13;1.30;;;;;9.10;100600.00;;;;10397779;28;20231;-81
2023/12/23 05:18:40;;;;;;;8.63;1.63;;;;;9.00;100568.00;;;;10379063;28;20305;-81
2023/12/23 05:23:41;;;;;;;7.17;1.73;;;;;9.00;100581.00;;;;10378375;28;20219;-81
2023/12/23 05:28:42;;;;;;;6.00;1.90;;;;;9.00;100591.00;;;;10381602;28;20222;-82
2023/12/23 05:33:44;;;;;;;9.03;2.00;;;;;9.00;100595.00;;;;10388810;28;20313;-81
2023/12/23 05:38:45;;;;;;;9.90;1.60;;;;;9.10;100589.00;;;;10399267;28;20225;-81
2023/12/23 05:43:49;;;;;;;11.40;2.27;;;;;9.10;100579.00;;;;10378642;28;20225;-83
2023/12/23 05:48:52;;;;;;;12.63;2.93;;;;;9.20;100591.00;;;;10391087;28;20225;-82
2023/12/23 05:53:53;;;;;;;8.20;1.97;;;;;9.30;100569.00;;;;10394465;28;20293;-82
2023/12/23 05:58:56;;;;;;;8.00;1.90;;;;;9.40;100582.00;;;;10375974;28;20218;-82
2023/12/23 06:03:57;;;;;;;11.47;2.03;;;;;9.40;100583.00;;;;10385387;28;20273;-82
2023/12/23 06:08:58;;;;;;;10.47;2.67;;;;;9.50;100589.00;;;;10387435;28;20262;-82
2023/12/23 06:13:59;;;;;;;14.13;2.40;;;;;9.50;100589.00;;;;10394545;28;20672;-81
2023/12/23 06:19:01;;;;;;;14.50;2.60;;;;;9.60;100581.00;;;;10387724;28;20253;-81
2023/12/23 06:24:03;;;;;;;9.20;2.30;;;;;9.60;100587.00;;;;10390779;28;20233;-83
2023/12/23 06:29:04;;;;;;;8.73;2.50;;;;;9.60;100574.00;;;;10396830;28;20226;-82
2023/12/23 06:34:06;;;;;;;14.17;2.70;;;;;9.70;100575.00;;;;10364849;28;20271;-82
2023/12/23 06:39:07;;;;;;;13.07;3.87;;;;;9.70;100566.00;;;;10377688;28;20218;-81
2023/12/23 06:44:09;;;;;;;9.03;2.40;;;;;9.80;100567.00;;;;10394639;28;20293;-83
2023/12/23 06:49:12;;;;;;;9.57;2.40;;;;;9.80;100557.00;;;;10402253;28;20268;-82
2023/12/23 06:54:13;;;;;;;14.13;2.90;;;;;9.90;100568.00;;;;10376211;28;20308;-83
2023/12/23 06:59:14;;;;;;;10.87;2.67;;;;;9.90;100571.00;;;;10400088;28;20781;-82
2023/12/23 07:04:15;;;;;;;6.53;2.13;;;;;9.90;100567.00;;;;10393742;28;20221;-82
2023/12/23 07:09:16;;;;;;;14.33;2.50;;;;;9.90;100569.00;;;;10385633;28;20259;-82
2023/12/23 07:14:18;;;;;;;9.50;3.33;;;;;9.90;100587.00;;;;10400781;28;20660;-83
2023/12/23 07:19:19;;;;;;;8.77;2.33;;;;;10.00;100599.00;;;;10377028;28;20242;-86
2023/12/23 07:24:21;;;;;;;9.10;2.20;;;;;10.00;100592.00;;;;10400805;28;20219;-85
2023/12/23 07:29:22;;;;;;;16.37;2.53;;;;;10.00;100592.00;;;;10399342;28;21020;-83
2023/12/23 07:34:23;;;;;;;9.70;2.10;;;;;10.00;100568.00;;;;10397124;28;20853;-84
2023/12/23 07:39:24;;;;;;;11.00;3.13;;;;;10.00;100577.00;;;;10385457;28;20244;-85
2023/12/23 07:44:26;;;;;;;10.93;2.07;;;;;10.00;100607.00;;;;10399984;28;20210;-85
2023/12/23 07:49:29;;;;;;;7.73;2.00;;;;;10.00;100597.00;;;;10440351;28;20322;-86
2023/12/23 07:54:30;;;;;;;9.63;1.97;;;;;10.00;100610.00;;;;10389803;28;20228;-84
2023/12/23 07:59:31;;;;;;;9.77;2.10;;;;;10.00;100598.00;;;;10397244;28;20301;-87
2023/12/23 08:04:33;;;;;;;6.83;1.70;;;;;10.10;100590.00;;;;10408431;28;20655;-84
2023/12/23 08:09:34;;;;;;;8.70;1.80;;;;;10.10;100593.00;;;;10409351;28;20226;-86
2023/12/23 08:14:35;;;;;;;10.33;2.17;;;;;10.10;100595.00;;;;10385972;28;20238;-83
2023/12/23 08:19:36;;;;;;;9.13;2.00;;;;;10.20;100607.00;;;;10394445;28;20561;-85
2023/12/23 08:24:37;;;;;;;8.23;1.70;;;;;10.20;100604.00;;;;10370865;28;20210;-85
2023/12/23 08:29:39;;;;;;;8.40;1.67;;;;;10.30;100619.00;;;;10387794;28;20800;-80
2023/12/23 08:34:40;;;;;;;7.43;1.30;;;;;10.40;100596.00;;;;10396980;28;21743;-81
2023/12/23 08:39:42;;;;;;;6.40;1.80;;;;;10.40;100600.00;;;;10397848;28;20214;-84
2023/12/23 08:44:43;;;;;;;11.10;1.67;;;;;10.60;100612.00;;;;10386960;28;20222;-79
2023/12/23 08:49:45;;;;;;;6.27;1.50;;;;;10.60;100609.00;;;;10378227;28;20672;-82
2023/12/23 08:54:46;;;;;;;6.53;1.70;;;;;10.70;100617.00;;;;10400303;28;20241;-81
2023/12/23 08:59:47;;;;;;;6.67;1.50;;;;;10.70;100619.00;;;;10381344;28;20278;-83
2023/12/23 09:04:48;;;;;;;9.83;1.70;;;;;10.70;100628.00;;;;10382606;28;20245;-80
2023/12/23 09:09:49;;;;;;;5.93;1.63;;;;;10.70;100630.00;;;;10383304;28;20222;-81
2023/12/23 09:14:51;;;;;;;7.17;2.00;;;;;10.70;100636.00;;;;10404871;28;20231;-81
2023/12/23 09:19:52;;;;;;;5.50;1.50;;;;;10.70;100637.00;;;;10388560;28;20218;-81
2023/12/23 09:24:53;;;;;;;7.20;1.70;;;;;10.80;100639.00;;;;10382110;28;20225;-84
2023/12/23 09:29:56;;;;;;;8.30;1.70;;;;;10.80;100635.00;;;;10377288;28;20729;-81
2023/12/23 09:34:57;;;;;;;9.10;1.50;;;;;10.90;100644.00;;;;10378945;28;20222;-82
2023/12/23 09:40:01;;;;;;;5.53;1.50;;;;;11.10;100647.00;;;;10394144;28;20217;-83
2023/12/23 09:45:04;;;;;;;5.90;1.80;;;;;11.20;100653.00;;;;10392391;28;20222;-83
2023/12/23 09:50:06;;;;;;;7.20;1.50;;;;;11.40;100658.00;;;;10388532;28;20244;-84
2023/12/23 09:55:09;;;;;;;8.63;2.13;;;;;11.40;100678.00;;;;10396916;28;20305;-84
2023/12/23 10:00:12;;;;;;;5.13;1.33;;;;;11.40;100674.00;;;;10388035;28;20244;-84
2023/12/23 10:05:15;;;;;;;7.57;2.07;;;;;11.40;100685.00;;;;10394155;28;20340;-84
2023/12/23 10:10:17;;;;;;;5.47;1.70;;;;;11.60;100681.00;;;;10397284;28;20750;-85
2023/12/23 10:15:19;;;;;;;6.33;1.43;;;;;11.90;100681.00;;;;10381606;28;20228;-84
2023/12/23 10:20:20;;;;;;;6.40;1.10;;;;;12.10;100695.00;;;;10405403;28;20305;-84
2023/12/23 10:25:21;;;;;;;5.23;1.90;;;;;12.20;100691.00;;;;10393922;28;20284;-84
2023/12/23 10:30:25;;;;;;;5.80;1.53;;;;;12.30;100697.00;;;;10408833;28;20226;-85
2023/12/23 10:35:29;;;;;;;3.73;1.20;;;;;12.20;100703.00;;;;10374959;28;20214;-85
2023/12/23 10:40:31;;;;;;;5.20;1.30;;;;;12.20;100706.00;;;;10405790;28;20623;-83
2023/12/23 10:45:35;;;;;;;7.77;1.87;;;;;12.00;100694.00;;;;10392688;28;20237;-84
2023/12/23 10:50:39;;;;;;;7.97;1.97;;;;;12.00;100701.00;;;;10383653;28;20241;-76
2023/12/23 10:55:41;;;;;;;8.03;1.63;;;;;12.10;100685.00;;;;10402362;28;20218;-78
2023/12/23 11:00:42;;;;;;;4.63;1.57;;;;;12.10;100665.00;;;;10386972;28;20222;-78
2023/12/23 11:05:45;;;;;;;6.73;1.53;;;;;12.00;100665.00;;;;10382777;28;20970;-77
2023/12/23 11:10:48;;;;;;;7.10;1.13;;;;;12.10;100678.00;;;;10400569;28;20933;-76
2023/12/23 11:15:49;;;;;;;3.83;1.30;;;;;12.20;100684.00;;;;10398067;28;20284;-76
2023/12/23 11:20:50;;;;;;;5.60;1.60;;;;;12.00;100687.00;;;;10382747;28;20222;-79
2023/12/23 11:25:54;;;;;;;5.50;1.50;;;;;12.00;100676.00;;;;10374255;28;20219;-82
2023/12/23 11:30:57;;;;;;;6.80;1.50;;;;;12.00;100673.00;;;;10386270;28;20715;-77
2023/12/23 11:35:59;;;;;;;4.15;1.20;;;;;12.20;100662.00;;;;10409219;28;20222;-78
2023/12/23 11:41:04;;;;;;;6.50;1.67;;;;;12.20;100679.00;;;;10371710;28;20237;-78
2023/12/23 11:46:06;;;;;;;7.85;1.88;;;;;12.20;100660.00;;;;10379111;28;20222;-78
2023/12/23 11:51:07;;;;;;;5.10;1.20;;;;;12.50;100655.00;;;;10401070;28;20319;-80
2023/12/23 11:56:09;;;;;;;6.45;1.63;;;;;12.90;100659.00;;;;10393900;28;20256;-77
2023/12/23 12:01:10;;;;;;;6.05;1.55;;;;;13.30;100634.00;;;;10377549;28;20249;-78
2023/12/23 12:06:12;;;;;;;5.28;1.88;;;;;13.40;100640.00;;;;10373942;28;20217;-78
2023/12/23 12:11:13;;;;;;;5.10;1.30;;;;;13.40;100617.00;;;;10388903;28;20233;-78
2023/12/23 12:16:15;;;;;;;10.13;1.73;;;;;13.30;100634.00;;;;10413062;28;20233;-78
2023/12/23 12:21:16;;;;;;;5.13;1.90;;;;;12.90;100632.00;;;;10385967;28;20237;-84
2023/12/23 12:26:19;;;;;;;5.93;1.40;;;;;12.40;100621.00;;;;10370292;28;20232;-85
2023/12/23 12:31:20;;;;;;;8.68;2.30;;;;;12.30;100606.00;;;;10387502;28;20231;-86
2023/12/23 12:36:21;;;;;;;5.57;2.00;;;;;12.40;100607.00;;;;10431539;28;20283;-84
2023/12/23 12:41:24;;;;;;;7.13;1.27;;;;;12.40;100609.00;;;;10397946;28;20223;-86
2023/12/23 12:46:30;;;;;;;4.53;1.37;;;;;12.20;100608.00;;;;10406383;28;20229;-84
2023/12/23 12:51:35;;;;;;;6.55;2.38;;;;;12.00;100598.00;;;;10379435;28;20241;-84
2023/12/23 12:56:36;;;;;;;8.77;2.40;;;;;12.10;100593.00;;;;10377929;28;20267;-86
2023/12/23 13:01:37;;;;;;;7.00;1.80;;;;;12.10;100597.00;;;;10380642;28;20222;-84
2023/12/23 13:06:38;;;;;;;6.38;2.17;;;;;12.00;100586.00;;;;10382246;28;20717;-84
2023/12/23 13:11:40;;;;;;;9.55;2.25;;;;;12.00;100606.00;;;;10395168;28;20221;-85
2023/12/23 13:16:41;;;;;;;4.63;1.53;;;;;11.90;100606.00;;;;10400053;28;20218;-85
2023/12/23 13:21:44;;;;;;;6.63;1.47;;;;;11.80;100599.00;;;;10396868;28;20657;-85
2023/12/23 13:26:46;;;;;;;8.43;1.90;;;;;11.70;100582.00;;;;10389255;28;20221;-84
2023/12/23 13:31:47;;;;;;;4.73;1.00;;;;;11.60;100592.00;;;;10386373;28;20220;-84
2023/12/23 13:36:48;;;;;;;3.73;1.53;;;;;11.50;100611.00;;;;10393239;28;20214;-85
2023/12/23 13:41:49;;;;;;;3.67;1.10;;;;;11.50;100601.00;;;;10397427;28;20249;-83
2023/12/23 13:46:53;;;;;;;7.67;1.40;;;;;11.50;100605.00;;;;10377577;28;20218;-86
2023/12/23 13:51:54;;;;;;;5.30;1.30;;;;;11.50;100601.00;;;;10392227;28;20223;-87
2023/12/23 13:56:56;;;;;;;5.63;1.87;;;;;11.50;100614.00;;;;10391680;28;20478;-82
2023/12/23 14:01:57;;;;;;;7.50;2.20;;;;;11.60;100596.00;;;;10384991;28;20225;-82
2023/12/23 14:06:58;;;;;;;5.73;1.80;;;;;11.60;100615.00;;;;10392351;28;20214;-82
2023/12/23 14:12:00;;;;;;;5.60;2.00;;;;;11.70;100621.00;;;;10380103;28;20249;-82
2023/12/23 14:17:02;;;;;;;4.90;1.60;;;;;11.60;100621.00;;;;10384672;28;20229;-82
2023/12/23 14:22:03;;;;;;;3.53;1.53;;;;;11.50;100630.00;;;;10396841;28;20224;-83
2023/12/23 14:27:05;;;;;;;5.90;1.77;;;;;11.50;100612.00;;;;10386596;28;20221;-83
2023/12/23 14:32:07;;;;;;;5.27;1.30;;;;;11.50;100624.00;;;;10378270;28;20225;-83
2023/12/23 14:37:08;;;;;;;4.90;1.20;;;;;11.40;100616.00;;;;10391656;28;20276;-82
2023/12/23 14:42:10;;;;;;;6.93;1.20;;;;;11.40;100637.00;;;;10377340;28;20233;-82
2023/12/23 14:47:11;;;;;;;7.53;1.43;;;;;11.40;100629.00;;;;10375340;28;20263;-84
2023/12/23 14:52:12;;;;;;;4.13;1.43;;;;;11.30;100637.00;;;;10381112;28;20803;-84
2023/12/23 14:57:13;;;;;;;7.27;1.63;;;;;11.30;100636.00;;;;10396402;28;20234;-84
2023/12/23 15:02:16;;;;;;;5.60;1.27;;;;;11.30;100648.00;;;;10377278;28;20249;-83
2023/12/23 15:07:18;;;;;;;3.00;1.10;;;;;11.30;100640.00;;;;10382926;28;20240;-84
2023/12/23 15:12:19;;;;;;;7.50;2.00;;;;;11.20;100644.00;;;;10400811;28;20225;-84
2023/12/23 15:17:21;;;;;;;7.10;1.17;;;;;11.20;100645.00;;;;10397246;28;20672;-83
2023/12/23 15:22:22;;;;;;;7.37;1.30;;;;;11.20;100642.00;;;;10391996;28;20217;-84
2023/12/23 15:27:23;;;;;;;4.03;1.20;;;;;11.20;100659.00;;;;10374328;28;20233;-83
2023/12/23 15:32:24;;;;;;;4.60;1.10;;;;;11.10;100644.00;;;;10406035;28;20226;-83
2023/12/23 15:37:26;;;;;;;4.83;1.23;;;;;11.10;100646.00;;;;10373211;28;21983;-84
2023/12/23 15:42:28;;;;;;;6.27;1.20;;;;;11.10;100645.00;;;;10403949;28;20226;-83
2023/12/23 15:47:29;;;;;;;1.90;0.90;;;;;11.10;100648.00;;;;10395198;28;20666;-84
2023/12/23 15:52:32;;;;;;;5.03;1.20;;;;;11.10;100661.00;;;;10396441;28;20270;-80
2023/12/23 15:57:34;;;;;;;4.63;1.00;;;;;11.00;100660.00;;;;10396028;28;20900;-82
2023/12/23 16:02:36;;;;;;;4.10;1.20;;;;;11.00;100660.00;;;;10398011;28;20239;-81
2023/12/23 16:07:37;;;;;;;2.97;0.90;;;;;11.00;100666.00;;;;10397264;28;20217;-82
2023/12/23 16:12:39;;;;;;;4.43;1.67;;;;;11.00;100671.00;;;;10393823;28;20309;-81
2023/12/23 16:17:41;;;;;;;3.70;1.40;;;;;11.00;100676.00;;;;10381035;28;20894;-81
2023/12/23 16:22:42;;;;;;;5.90;1.30;;;;;11.00;100676.00;;;;10380732;28;20226;-81
2023/12/23 16:27:44;;;;;;;4.73;1.10;;;;;11.00;100675.00;;;;10391652;28;20222;-80
2023/12/23 16:32:48;;;;;;;2.40;1.07;;;;;10.90;100681.00;;;;10395518;28;20253;-80
2023/12/23 16:37:49;;;;;;;2.47;1.03;;;;;10.90;100684.00;;;;10375949;28;20276;-80
2023/12/23 16:42:51;;;;;;;5.87;1.50;;;;;10.90;100698.00;;;;10375970;28;20295;-81
2023/12/23 16:47:52;;;;;;;4.27;1.40;;;;;10.80;100686.00;;;;10378180;28;20737;-81
2023/12/23 16:52:54;;;;;;;5.87;1.67;;;;;10.80;100684.00;;;;10379071;28;20214;-82
2023/12/23 16:57:56;;;;;;;5.83;1.40;;;;;10.70;100683.00;;;;10390434;28;20226;-80
2023/12/23 17:02:57;;;;;;;5.20;1.30;;;;;10.70;100687.00;;;;10379599;28;20214;-80
2023/12/23 17:07:58;;;;;;;4.30;1.20;;;;;10.60;100689.00;;;;10393563;28;20260;-81
2023/12/23 17:12:59;;;;;;;3.23;1.20;;;;;10.50;100692.00;;;;10385916;28;20222;-81
2023/12/23 17:18:03;;;;;;;5.10;1.40;;;;;10.40;100679.00;;;;10383482;28;20230;-80
2023/12/23 17:23:07;;;;;;;4.80;1.30;;;;;10.30;100701.00;;;;10388934;28;20596;-81
2023/12/23 17:28:08;;;;;;;5.70;1.40;;;;;10.30;100697.00;;;;10368104;28;20935;-81
2023/12/23 17:33:14;;;;;;;7.70;1.90;;;;;10.20;100693.00;;;;10397385;28;20294;-80
2023/12/23 17:38:15;;;;;;;6.57;1.50;;;;;10.10;100693.00;;;;10416166;28;20676;-81
2023/12/23 17:43:17;;;;;;;7.17;1.53;;;;;10.10;100701.00;;;;10409650;28;20230;-81
2023/12/23 17:48:18;;;;;;;6.67;1.70;;;;;10.00;100699.00;;;;10398937;28;20279;-81
2023/12/23 17:53:19;;;;;;;8.13;2.00;;;;;9.90;100701.00;;;;10396391;28;20237;-81
2023/12/23 17:58:22;;;;;;;7.00;1.73;;;;;9.80;100703.00;;;;10397342;28;20224;-81
2023/12/23 18:03:23;;;;;;;6.17;1.43;;;;;9.80;100695.00;;;;10395764;28;21015;-80
2023/12/23 18:08:25;;;;;;;9.20;2.33;;;;;9.70;100704.00;;;;10393924;28;21137;-78
2023/12/23 18:13:26;;;;;;;8.53;1.93;;;;;9.70;100703.00;;;;10377651;28;20348;-79
2023/12/23 18:18:28;;;;;;;6.77;2.00;;;;;9.70;100692.00;;;;10374918;28;20651;-80
2023/12/23 18:23:29;;;;;;;5.10;1.90;;;;;9.60;100692.00;;;;10357997;28;20218;-80
2023/12/23 18:28:32;;;;;;;6.27;2.17;;;;;9.50;100688.00;;;;10379062;28;20230;-79
2023/12/23 18:33:33;;;;;;;7.63;2.27;;;;;9.50;100705.00;;;;10413282;28;20245;-80
2023/12/23 18:38:34;;;;;;;8.87;2.70;;;;;9.50;100689.00;;;;10378906;28;20222;-80
2023/12/23 18:43:36;;;;;;;5.83;1.87;;;;;9.60;100689.00;;;;10405212;28;20217;-81
2023/12/23 18:48:37;;;;;;;6.27;2.20;;;;;9.60;100685.00;;;;10368215;28;20225;-81
2023/12/23 18:53:38;;;;;;;7.00;1.83;;;;;9.50;100670.00;;;;10381250;28;20221;-80
2023/12/23 18:58:39;;;;;;;5.23;1.90;;;;;9.50;100682.00;;;;10377753;28;20225;-80
2023/12/23 19:03:41;;;;;;;8.13;1.93;;;;;9.40;100677.00;;;;10394955;28;20225;-81
2023/12/23 19:08:42;;;;;;;7.30;1.70;;;;;9.50;100676.00;;;;10393098;28;20226;-79
2023/12/23 19:13:43;;;;;;;3.93;2.10;;;;;9.60;100676.00;;;;10370470;28;20218;-81
2023/12/23 19:18:44;;;;;;;6.57;1.67;;;;;9.70;100679.00;;;;10378396;28;20864;-81
2023/12/23 19:23:46;;;;;;;8.03;1.33;;;;;9.70;100687.00;;;;10382349;28;20226;-81
2023/12/23 19:28:47;;;;;;;3.77;1.60;;;;;9.70;100680.00;;;;10378463;28;20271;-82
2023/12/23 19:33:48;;;;;;;3.20;1.77;;;;;9.80;100680.00;;;;10382439;28;20805;-81
2023/12/23 19:38:49;;;;;;;3.27;1.53;;;;;9.80;100679.00;;;;10390505;28;20230;-82
2023/12/23 19:43:50;;;;;;;5.60;2.23;;;;;9.80;100685.00;;;;10403788;28;20215;-82
2023/12/23 19:48:51;;;;;;;10.73;2.37;;;;;9.70;100679.00;;;;10399197;28;20221;-81
2023/12/23 19:53:53;;;;;;;4.80;1.73;;;;;9.70;100679.00;;;;10374288;28;20275;-81
2023/12/23 19:58:59;;;;;;;5.37;2.30;;;;;9.70;100675.00;;;;10377802;28;20994;-83
2023/12/23 20:04:01;;;;;;;6.47;2.40;;;;;9.70;100676.00;;;;10384507;28;20317;-82
2023/12/23 20:09:03;;;;;;;7.17;2.60;;;;;9.80;100673.00;;;;10370078;28;20298;-82
2023/12/23 20:14:04;;;;;;;6.73;3.37;;;;;9.80;100689.00;;;;10422239;28;20922;-82
2023/12/23 20:19:05;;;;;;;9.30;2.30;;;;;9.90;100677.00;;;;10392847;28;20903;-82
2023/12/23 20:24:07;;;;;;;5.97;2.40;;;;;9.90;100686.00;;;;10402192;28;20245;-82
2023/12/23 20:29:08;;;;;;;8.70;2.03;;;;;10.00;100670.00;;;;10392116;28;20236;-81
2023/12/23 20:34:09;;;;;;;8.73;2.37;;;;;10.00;100663.00;;;;10370168;28;20222;-80
2023/12/23 20:39:11;;;;;;;6.23;2.10;;;;;10.00;100666.00;;;;10369322;28;20210;-82
2023/12/23 20:44:26;;;;;;;3.70;1.70;;;;;10.00;100669.00;;;;10395067;28;20221;-80
2023/12/23 20:49:27;;;;;;;8.20;2.33;;;;;10.10;100668.00;;;;10400121;28;20630;-80
2023/12/23 20:54:28;;;;;;;4.63;1.30;;;;;10.10;100660.00;;;;10371681;28;20276;-81
2023/12/23 20:59:29;;;;;;;6.60;1.73;;;;;10.20;100669.00;;;;10382954;28;20248;-80
2023/12/23 21:04:31;;;;;;;8.63;2.03;;;;;10.20;100659.00;;;;10382790;28;20226;-81
2023/12/23 21:09:32;;;;;;;3.47;1.60;;;;;10.20;100649.00;;;;10379085;28;20226;-81
2023/12/23 21:14:33;;;;;;;5.60;1.73;;;;;10.20;100643.00;;;;10379603;28;20250;-80
2023/12/23 21:19:34;;;;;;;10.63;1.90;;;;;10.20;100633.00;;;;10380917;28;20229;-81
2023/12/23 21:24:36;;;;;;;4.13;1.60;;;;;10.20;100638.00;;;;10384754;28;20248;-81
2023/12/23 21:29:37;;;;;;;8.90;2.23;;;;;10.20;100644.00;;;;10374381;28;20381;-81
2023/12/23 21:34:39;;;;;;;4.70;1.70;;;;;10.20;100641.00;;;;10402274;28;20277;-80
2023/12/23 21:39:40;;;;;;;3.47;1.70;;;;;10.20;100642.00;;;;10409180;28;20260;-86
2023/12/23 21:44:41;;;;;;;6.20;1.47;;;;;10.30;100641.00;;;;10384143;28;20933;-86
2023/12/23 21:49:42;;;;;;;3.90;1.67;;;;;10.30;100652.00;;;;10385860;28;20259;-85
2023/12/23 21:54:43;;;;;;;9.23;1.70;;;;;10.30;100657.00;;;;10386595;28;20226;-84
2023/12/23 21:59:45;;;;;;;7.00;1.60;;;;;10.30;100641.00;;;;10394209;28;20222;-84
2023/12/23 22:04:46;;;;;;;11.23;1.70;;;;;10.30;100639.00;;;;10384174;28;20793;-84
2023/12/23 22:09:47;;;;;;;6.37;2.00;;;;;10.30;100640.00;;;;10403488;28;20227;-83
2023/12/23 22:14:49;;;;;;;4.50;1.43;;;;;10.40;100636.00;;;;10378692;28;20222;-85
2023/12/23 22:19:50;;;;;;;5.67;1.50;;;;;10.40;100625.00;;;;10405666;28;20278;-86
2023/12/23 22:24:57;;;;;;;7.23;2.40;;;;;10.40;100626.00;;;;10390857;28;20668;-83
2023/12/23 22:29:58;;;;;;;5.80;1.73;;;;;10.40;100622.00;;;;10388991;28;20776;-83
2023/12/23 22:35:00;;;;;;;4.73;1.40;;;;;10.40;100609.00;;;;10402557;28;20762;-85
2023/12/23 22:40:02;;;;;;;3.00;1.20;;;;;10.40;100596.00;;;;10371475;28;20230;-84
2023/12/23 22:45:03;;;;;;;4.47;1.50;;;;;10.40;100593.00;;;;10379726;28;20624;-85
2023/12/23 22:50:05;;;;;;;5.07;1.80;;;;;10.30;100575.00;;;;10414402;28;20249;-82
2023/12/23 22:55:06;;;;;;;7.87;1.63;;;;;10.10;100559.00;;;;10386639;28;20281;-82
2023/12/23 23:00:12;;;;;;;6.03;1.70;;;;;9.90;100554.00;;;;10379941;28;20287;-83
2023/12/23 23:05:13;;;;;;;4.90;1.20;;;;;9.80;100529.00;;;;10388898;28;20329;-82
2023/12/23 23:10:15;;;;;;;6.73;1.90;;;;;9.70;100529.00;;;;10383739;28;20228;-83
2023/12/23 23:15:17;;;;;;;6.27;1.47;;;;;9.80;100525.00;;;;10386558;28;20313;-83
2023/12/23 23:20:18;;;;;;;5.20;1.20;;;;;9.80;100511.00;;;;10402840;28;20233;-84
2023/12/23 23:25:19;;;;;;;5.03;1.60;;;;;9.90;100498.00;;;;10398830;28;20217;-83
2023/12/23 23:30:20;;;;;;;6.03;1.40;;;;;10.00;100525.00;;;;10402721;28;20222;-84
2023/12/23 23:35:22;;;;;;;8.53;1.47;;;;;10.10;100514.00;;;;10396666;28;20312;-83
2023/12/23 23:40:23;;;;;;;5.90;1.50;;;;;10.20;100515.00;;;;10371567;28;20253;-84
2023/12/23 23:45:24;;;;;;;3.27;1.00;;;;;10.30;100515.00;;;;10399333;28;20857;-84
2023/12/23 23:50:25;;;;;;;6.13;1.30;;;;;10.30;100520.00;;;;10377337;28;20707;-85
2023/12/23 23:55:26;;;;;;;4.87;1.03;;;;;10.40;100543.00;;;;10382247;28;21886;-84
